Hlavní strana
METAR-TAF:

METAR-TAF

Letiště :

Larnaka, Kypr

Letiště Larnaka

zeměpisná šířka: 34-53N, zeměpisná délka: 033-38E, výška: 2 m

Aktuální stav počasí

Zpráva byla vytvořena před 36 minutami, v 21:30 UTC
Severoseverozápadní vítr 15 kt
Teplota 25°C
Vlhkost vzduchu 26%
Tlak 1009 hPa
Viditelnost 10 km a více
Žádná oblačnost pod 1500 m, nevyskytují se cumulonimby.

METAR: LCLK 252130Z 33015KT CAVOK 25/04 Q1009 NOSIG

Čas: 01:06 (22:06 UTC)

Předpověď počasí

Zpráva byla vytvořena před 4 hodinami a 36 minutami, v 17:30 UTC
Předpověď platná od 25 v 18 UTC do 26 v 18 UTC
Severovýchodní vítr 8 kt
Viditelnost 10 km a více
Skoro jasno ve výšce 4000 ft
Změna
od 26 v 06 UTC do 26 v 10 UTC
Východní vítr 11 kt
Změna
od 26 v 14 UTC do 26 v 18 UTC
Severní vítr 7 kt

TAF: LCLK 251730Z 2518/2618 04008KT 9999 FEW040 BECMG 2606/2610 10011KT BECMG 2614/2618 35007KT

Stav a předpovědi počasí z více než 4 000 letišť (zprávy METAR a TAF).

Červené a žluté tečky na mapě představují dostupné meteorologické stanice.

Když kurzor umístíte na tečku, zobrazí se název stanice.

Pak kliknutím zobrazíte stav a předpověď počasí.

Chcete-li změnit mapu, kliknutím na zelené tlačítko se znaménkem +mapu přiblížíte, kliknutím na zelené tlačítko se znaménkem – mapu oddálíte a kliknutím na zelené šipky přejdete na sousední mapy.


METAR-TAF: